sensor_id;sensor_type;location;lat;lon;timestamp;pressure;altitude;pressure_sealevel;temperature;humidity
55517;BME280;41724;51.176;-0.708;2022-12-26T00:01:35;100300.78;;;8.29;96.62
55517;BME280;41724;51.176;-0.708;2022-12-26T00:04:03;100303.47;;;7.84;97.44
55517;BME280;41724;51.176;-0.708;2022-12-26T00:06:31;100301.83;;;7.91;96.94
55517;BME280;41724;51.176;-0.708;2022-12-26T00:09:02;100308.30;;;7.75;97.59
55517;BME280;41724;51.176;-0.708;2022-12-26T00:11:30;100304.65;;;7.82;99.01
55517;BME280;41724;51.176;-0.708;2022-12-26T00:13:59;100306.25;;;7.73;95.58
55517;BME280;41724;51.176;-0.708;2022-12-26T00:16:27;100313.25;;;8.18;93.87
55517;BME280;41724;51.176;-0.708;2022-12-26T00:18:55;100309.29;;;7.96;93.29
55517;BME280;41724;51.176;-0.708;2022-12-26T00:21:23;100304.14;;;8.64;91.21
55517;BME280;41724;51.176;-0.708;2022-12-26T00:23:50;100299.44;;;8.18;90.39
55517;BME280;41724;51.176;-0.708;2022-12-26T00:26:19;100290.72;;;7.92;91.69
55517;BME280;41724;51.176;-0.708;2022-12-26T00:28:48;100297.07;;;7.75;91.36
55517;BME280;41724;51.176;-0.708;2022-12-26T00:31:17;100289.90;;;8.17;90.67
55517;BME280;41724;51.176;-0.708;2022-12-26T00:33:45;100286.64;;;8.00;91.78
55517;BME280;41724;51.176;-0.708;2022-12-26T00:36:14;100285.12;;;7.61;94.42
55517;BME280;41724;51.176;-0.708;2022-12-26T00:38:43;100274.30;;;8.15;88.85
55517;BME280;41724;51.176;-0.708;2022-12-26T00:41:12;100294.53;;;8.44;88.86
55517;BME280;41724;51.176;-0.708;2022-12-26T00:43:40;100278.84;;;8.61;89.94
55517;BME280;41724;51.176;-0.708;2022-12-26T00:46:07;100275.62;;;7.74;92.59
55517;BME280;41724;51.176;-0.708;2022-12-26T00:48:34;100271.01;;;7.62;93.49
55517;BME280;41724;51.176;-0.708;2022-12-26T00:51:02;100265.39;;;8.03;90.40
55517;BME280;41724;51.176;-0.708;2022-12-26T00:53:29;100281.95;;;7.61;90.31
55517;BME280;41724;51.176;-0.708;2022-12-26T00:55:59;100272.93;;;7.28;94.05
55517;BME280;41724;51.176;-0.708;2022-12-26T00:58:26;100271.69;;;7.51;95.44
55517;BME280;41724;51.176;-0.708;2022-12-26T01:00:54;100297.96;;;7.00;94.00
55517;BME280;41724;51.176;-0.708;2022-12-26T01:03:22;100276.22;;;7.21;95.91
55517;BME280;41724;51.176;-0.708;2022-12-26T01:05:50;100277.45;;;7.71;94.81
55517;BME280;41724;51.176;-0.708;2022-12-26T01:08:18;100271.95;;;7.74;92.84
55517;BME280;41724;51.176;-0.708;2022-12-26T01:10:46;100273.57;;;7.74;94.43
55517;BME280;41724;51.176;-0.708;2022-12-26T01:13:13;100268.43;;;7.64;93.24
55517;BME280;41724;51.176;-0.708;2022-12-26T01:15:47;100274.08;;;7.34;94.75
55517;BME280;41724;51.176;-0.708;2022-12-26T01:18:14;100281.47;;;7.68;93.16
55517;BME280;41724;51.176;-0.708;2022-12-26T01:20:42;100279.82;;;7.82;92.45
55517;BME280;41724;51.176;-0.708;2022-12-26T01:23:09;100278.97;;;7.94;92.42
55517;BME280;41724;51.176;-0.708;2022-12-26T01:25:35;100271.63;;;7.56;93.55
55517;BME280;41724;51.176;-0.708;2022-12-26T01:28:05;100282.13;;;8.10;90.44
55517;BME280;41724;51.176;-0.708;2022-12-26T01:30:32;100273.06;;;7.86;92.40
55517;BME280;41724;51.176;-0.708;2022-12-26T01:33:00;100269.75;;;7.63;95.17
55517;BME280;41724;51.176;-0.708;2022-12-26T01:35:27;100264.92;;;7.48;95.46
55517;BME280;41724;51.176;-0.708;2022-12-26T01:37:54;100269.74;;;7.95;91.11
55517;BME280;41724;51.176;-0.708;2022-12-26T01:40:21;100266.82;;;7.80;92.09
55517;BME280;41724;51.176;-0.708;2022-12-26T01:42:49;100262.41;;;8.16;90.82
55517;BME280;41724;51.176;-0.708;2022-12-26T01:45:21;100267.02;;;7.81;90.15
55517;BME280;41724;51.176;-0.708;2022-12-26T01:47:54;100270.45;;;8.43;89.99
55517;BME280;41724;51.176;-0.708;2022-12-26T01:50:30;100282.62;;;7.66;92.17
55517;BME280;41724;51.176;-0.708;2022-12-26T01:53:02;100273.05;;;7.81;92.48
55517;BME280;41724;51.176;-0.708;2022-12-26T01:55:31;100272.70;;;7.39;96.81
55517;BME280;41724;51.176;-0.708;2022-12-26T01:58:03;100270.87;;;7.57;94.26
55517;BME280;41724;51.176;-0.708;2022-12-26T02:00:35;100260.74;;;7.55;96.54
55517;BME280;41724;51.176;-0.708;2022-12-26T02:03:05;100266.74;;;7.78;93.98
55517;BME280;41724;51.176;-0.708;2022-12-26T02:05:32;100263.20;;;7.75;92.25
55517;BME280;41724;51.176;-0.708;2022-12-26T02:08:03;100270.10;;;7.74;92.99
55517;BME280;41724;51.176;-0.708;2022-12-26T02:10:34;100285.17;;;7.84;92.04
55517;BME280;41724;51.176;-0.708;2022-12-26T02:13:04;100274.42;;;7.60;93.34
55517;BME280;41724;51.176;-0.708;2022-12-26T02:15:32;100274.13;;;7.55;94.09
55517;BME280;41724;51.176;-0.708;2022-12-26T02:17:59;100287.49;;;7.67;95.96
55517;BME280;41724;51.176;-0.708;2022-12-26T02:20:35;100287.76;;;7.34;95.81
55517;BME280;41724;51.176;-0.708;2022-12-26T02:24:29;100302.38;;;8.05;92.19
55517;BME280;41724;51.176;-0.708;2022-12-26T02:27:46;100298.97;;;7.78;93.53
55517;BME280;41724;51.176;-0.708;2022-12-26T02:30:28;100311.71;;;7.28;96.28
55517;BME280;41724;51.176;-0.708;2022-12-26T02:33:09;100307.85;;;7.50;95.41
55517;BME280;41724;51.176;-0.708;2022-12-26T02:35:53;100307.09;;;7.66;93.45
55517;BME280;41724;51.176;-0.708;2022-12-26T02:38:34;100319.09;;;7.66;92.43
55517;BME280;41724;51.176;-0.708;2022-12-26T02:41:16;100331.24;;;7.83;93.42
55517;BME280;41724;51.176;-0.708;2022-12-26T02:43:54;100331.33;;;8.45;89.41
55517;BME280;41724;51.176;-0.708;2022-12-26T02:46:33;100335.89;;;8.27;87.15
55517;BME280;41724;51.176;-0.708;2022-12-26T02:49:05;100342.97;;;8.48;88.95
55517;BME280;41724;51.176;-0.708;2022-12-26T02:51:47;100344.09;;;7.53;90.62
55517;BME280;41724;51.176;-0.708;2022-12-26T02:54:22;100354.44;;;7.83;92.19
55517;BME280;41724;51.176;-0.708;2022-12-26T02:56:55;100355.13;;;7.92;90.71
55517;BME280;41724;51.176;-0.708;2022-12-26T02:59:31;100359.72;;;8.19;89.95
55517;BME280;41724;51.176;-0.708;2022-12-26T03:02:07;100354.71;;;8.08;91.08
55517;BME280;41724;51.176;-0.708;2022-12-26T03:04:42;100360.35;;;7.68;91.78
55517;BME280;41724;51.176;-0.708;2022-12-26T03:07:17;100367.47;;;8.71;87.65
55517;BME280;41724;51.176;-0.708;2022-12-26T03:09:47;100364.67;;;8.17;86.28
55517;BME280;41724;51.176;-0.708;2022-12-26T03:12:30;100371.56;;;8.08;87.86
55517;BME280;41724;51.176;-0.708;2022-12-26T03:15:03;100383.95;;;8.03;86.77
55517;BME280;41724;51.176;-0.708;2022-12-26T03:17:37;100386.01;;;8.73;85.52
55517;BME280;41724;51.176;-0.708;2022-12-26T03:20:11;100403.13;;;8.52;84.78
55517;BME280;41724;51.176;-0.708;2022-12-26T03:22:42;100403.74;;;7.93;88.31
55517;BME280;41724;51.176;-0.708;2022-12-26T03:25:15;100398.70;;;8.16;87.32
55517;BME280;41724;51.176;-0.708;2022-12-26T03:27:46;100407.12;;;7.97;85.85
55517;BME280;41724;51.176;-0.708;2022-12-26T03:30:13;100420.23;;;8.51;84.46
55517;BME280;41724;51.176;-0.708;2022-12-26T03:32:42;100426.47;;;8.84;81.54
55517;BME280;41724;51.176;-0.708;2022-12-26T03:35:12;100418.58;;;9.47;78.03
55517;BME280;41724;51.176;-0.708;2022-12-26T03:37:47;100418.26;;;9.88;76.27
55517;BME280;41724;51.176;-0.708;2022-12-26T03:40:28;100422.57;;;10.61;73.96
55517;BME280;41724;51.176;-0.708;2022-12-26T03:43:07;100433.06;;;10.18;72.82
55517;BME280;41724;51.176;-0.708;2022-12-26T03:45:45;100435.39;;;10.69;71.82
55517;BME280;41724;51.176;-0.708;2022-12-26T03:48:25;100449.92;;;10.46;72.61
55517;BME280;41724;51.176;-0.708;2022-12-26T03:51:05;100461.31;;;10.59;69.58
55517;BME280;41724;51.176;-0.708;2022-12-26T03:53:36;100475.14;;;10.09;70.09
55517;BME280;41724;51.176;-0.708;2022-12-26T03:56:09;100490.95;;;8.84;74.36
55517;BME280;41724;51.176;-0.708;2022-12-26T03:58:45;100491.14;;;7.98;74.54
55517;BME280;41724;51.176;-0.708;2022-12-26T04:01:18;100505.53;;;7.75;73.78
55517;BME280;41724;51.176;-0.708;2022-12-26T04:03:50;100503.95;;;7.57;76.06
55517;BME280;41724;51.176;-0.708;2022-12-26T04:06:23;100502.95;;;8.15;75.07
55517;BME280;41724;51.176;-0.708;2022-12-26T04:08:55;100504.37;;;7.91;74.90
55517;BME280;41724;51.176;-0.708;2022-12-26T04:11:25;100510.01;;;7.93;74.58
55517;BME280;41724;51.176;-0.708;2022-12-26T04:13:59;100506.50;;;7.89;73.81
55517;BME280;41724;51.176;-0.708;2022-12-26T04:16:33;100515.04;;;7.92;72.75
55517;BME280;41724;51.176;-0.708;2022-12-26T04:19:12;100520.83;;;7.44;72.82
55517;BME280;41724;51.176;-0.708;2022-12-26T04:21:47;100522.66;;;7.78;74.10
55517;BME280;41724;51.176;-0.708;2022-12-26T04:24:23;100522.07;;;8.07;72.57
55517;BME280;41724;51.176;-0.708;2022-12-26T04:26:54;100536.62;;;7.79;73.59
55517;BME280;41724;51.176;-0.708;2022-12-26T04:29:24;100542.82;;;8.99;69.26
55517;BME280;41724;51.176;-0.708;2022-12-26T04:31:54;100540.19;;;8.02;72.55
55517;BME280;41724;51.176;-0.708;2022-12-26T04:34:31;100551.16;;;8.13;71.69
55517;BME280;41724;51.176;-0.708;2022-12-26T04:37:07;100557.24;;;8.70;70.08
55517;BME280;41724;51.176;-0.708;2022-12-26T04:39:43;100568.50;;;8.04;69.83
55517;BME280;41724;51.176;-0.708;2022-12-26T04:42:16;100570.96;;;7.75;71.97
55517;BME280;41724;51.176;-0.708;2022-12-26T04:44:45;100568.00;;;7.63;73.77
55517;BME280;41724;51.176;-0.708;2022-12-26T04:47:13;100557.83;;;7.40;72.26
55517;BME280;41724;51.176;-0.708;2022-12-26T04:49:44;100560.58;;;8.22;70.28
55517;BME280;41724;51.176;-0.708;2022-12-26T04:52:13;100580.94;;;7.59;71.99
55517;BME280;41724;51.176;-0.708;2022-12-26T04:54:40;100582.13;;;8.35;70.27
55517;BME280;41724;51.176;-0.708;2022-12-26T04:57:07;100584.68;;;8.92;67.24
55517;BME280;41724;51.176;-0.708;2022-12-26T04:59:34;100590.77;;;8.38;68.97
55517;BME280;41724;51.176;-0.708;2022-12-26T05:02:01;100604.31;;;7.92;69.23
55517;BME280;41724;51.176;-0.708;2022-12-26T05:04:30;100613.06;;;8.17;69.80
55517;BME280;41724;51.176;-0.708;2022-12-26T05:06:58;100619.39;;;7.99;69.10
55517;BME280;41724;51.176;-0.708;2022-12-26T05:09:26;100629.49;;;7.53;72.62
55517;BME280;41724;51.176;-0.708;2022-12-26T05:11:53;100634.57;;;7.47;71.46
55517;BME280;41724;51.176;-0.708;2022-12-26T05:14:20;100637.53;;;7.45;71.78
55517;BME280;41724;51.176;-0.708;2022-12-26T05:16:48;100640.31;;;7.63;71.41
55517;BME280;41724;51.176;-0.708;2022-12-26T05:19:17;100634.88;;;8.00;68.14
55517;BME280;41724;51.176;-0.708;2022-12-26T05:21:44;100653.07;;;7.32;70.43
55517;BME280;41724;51.176;-0.708;2022-12-26T05:24:11;100646.37;;;8.45;67.16
55517;BME280;41724;51.176;-0.708;2022-12-26T05:26:39;100654.68;;;8.27;65.97
55517;BME280;41724;51.176;-0.708;2022-12-26T05:29:07;100666.46;;;8.80;66.62
55517;BME280;41724;51.176;-0.708;2022-12-26T05:31:34;100669.19;;;8.07;66.12
55517;BME280;41724;51.176;-0.708;2022-12-26T05:34:01;100670.36;;;8.97;65.11
55517;BME280;41724;51.176;-0.708;2022-12-26T05:36:32;100675.38;;;8.99;64.41
55517;BME280;41724;51.176;-0.708;2022-12-26T05:39:01;100670.13;;;9.94;63.28
55517;BME280;41724;51.176;-0.708;2022-12-26T05:41:29;100681.91;;;8.58;63.31
55517;BME280;41724;51.176;-0.708;2022-12-26T05:43:56;100693.91;;;9.08;64.62
55517;BME280;41724;51.176;-0.708;2022-12-26T05:46:29;100715.65;;;8.60;64.33
55517;BME280;41724;51.176;-0.708;2022-12-26T05:48:56;100724.56;;;8.97;64.59
55517;BME280;41724;51.176;-0.708;2022-12-26T05:51:24;100728.68;;;8.08;68.13
55517;BME280;41724;51.176;-0.708;2022-12-26T05:53:52;100729.39;;;7.48;68.24
55517;BME280;41724;51.176;-0.708;2022-12-26T05:56:19;100735.31;;;8.18;66.37
55517;BME280;41724;51.176;-0.708;2022-12-26T05:58:53;100737.93;;;8.64;66.09
55517;BME280;41724;51.176;-0.708;2022-12-26T06:01:22;100747.97;;;8.40;64.96
55517;BME280;41724;51.176;-0.708;2022-12-26T06:03:50;100750.23;;;9.06;63.90
55517;BME280;41724;51.176;-0.708;2022-12-26T06:06:18;100757.47;;;8.25;66.00
55517;BME280;41724;51.176;-0.708;2022-12-26T06:08:46;100768.81;;;8.92;64.07
55517;BME280;41724;51.176;-0.708;2022-12-26T06:11:14;100776.49;;;8.50;65.44
55517;BME280;41724;51.176;-0.708;2022-12-26T06:13:42;100780.34;;;9.02;64.16
55517;BME280;41724;51.176;-0.708;2022-12-26T06:16:12;100782.93;;;8.36;65.10
55517;BME280;41724;51.176;-0.708;2022-12-26T06:18:40;100791.90;;;9.51;62.89
55517;BME280;41724;51.176;-0.708;2022-12-26T06:21:09;100804.30;;;8.38;64.14
55517;BME280;41724;51.176;-0.708;2022-12-26T06:23:37;100809.60;;;8.52;63.30
55517;BME280;41724;51.176;-0.708;2022-12-26T06:26:05;100815.17;;;8.60;62.36
55517;BME280;41724;51.176;-0.708;2022-12-26T06:28:34;100821.54;;;8.72;62.20
55517;BME280;41724;51.176;-0.708;2022-12-26T06:31:02;100820.40;;;9.15;61.82
55517;BME280;41724;51.176;-0.708;2022-12-26T06:33:30;100822.49;;;9.15;61.51
55517;BME280;41724;51.176;-0.708;2022-12-26T06:36:02;100828.89;;;9.35;59.90
55517;BME280;41724;51.176;-0.708;2022-12-26T06:38:30;100825.67;;;9.26;61.39
55517;BME280;41724;51.176;-0.708;2022-12-26T06:40:57;100832.35;;;8.98;61.28
55517;BME280;41724;51.176;-0.708;2022-12-26T06:43:24;100825.24;;;9.51;60.91
55517;BME280;41724;51.176;-0.708;2022-12-26T06:45:55;100834.02;;;9.66;60.72
55517;BME280;41724;51.176;-0.708;2022-12-26T06:48:23;100839.07;;;9.62;60.21
55517;BME280;41724;51.176;-0.708;2022-12-26T06:50:52;100852.03;;;9.40;59.73
55517;BME280;41724;51.176;-0.708;2022-12-26T06:53:19;100859.99;;;9.38;60.12
55517;BME280;41724;51.176;-0.708;2022-12-26T06:55:47;100859.38;;;9.65;60.21
55517;BME280;41724;51.176;-0.708;2022-12-26T06:58:15;100866.04;;;9.36;58.51
55517;BME280;41724;51.176;-0.708;2022-12-26T07:00:42;100871.69;;;9.28;59.60
55517;BME280;41724;51.176;-0.708;2022-12-26T07:03:09;100877.49;;;8.62;61.61
55517;BME280;41724;51.176;-0.708;2022-12-26T07:05:38;100885.30;;;8.70;60.75
55517;BME280;41724;51.176;-0.708;2022-12-26T07:08:06;100889.67;;;8.98;60.35
55517;BME280;41724;51.176;-0.708;2022-12-26T07:10:34;100897.93;;;8.59;60.80
55517;BME280;41724;51.176;-0.708;2022-12-26T07:13:02;100899.66;;;8.92;60.59
55517;BME280;41724;51.176;-0.708;2022-12-26T07:15:30;100900.47;;;9.13;60.94
55517;BME280;41724;51.176;-0.708;2022-12-26T07:17:57;100909.37;;;9.23;60.03
55517;BME280;41724;51.176;-0.708;2022-12-26T07:20:24;100913.96;;;9.08;59.96
55517;BME280;41724;51.176;-0.708;2022-12-26T07:22:52;100911.03;;;8.92;60.22
55517;BME280;41724;51.176;-0.708;2022-12-26T07:25:20;100914.99;;;9.13;59.93
55517;BME280;41724;51.176;-0.708;2022-12-26T07:27:47;100919.72;;;9.02;59.74
55517;BME280;41724;51.176;-0.708;2022-12-26T07:30:19;100925.52;;;9.00;58.87
55517;BME280;41724;51.176;-0.708;2022-12-26T07:32:46;100939.50;;;8.83;59.46
55517;BME280;41724;51.176;-0.708;2022-12-26T07:35:13;100955.68;;;8.65;59.97
55517;BME280;41724;51.176;-0.708;2022-12-26T07:37:40;100966.93;;;8.43;61.68
55517;BME280;41724;51.176;-0.708;2022-12-26T07:40:08;100975.01;;;8.35;60.41
55517;BME280;41724;51.176;-0.708;2022-12-26T07:42:36;100985.33;;;8.52;59.91
55517;BME280;41724;51.176;-0.708;2022-12-26T07:45:04;100991.17;;;8.41;60.37
55517;BME280;41724;51.176;-0.708;2022-12-26T07:47:31;100997.86;;;8.52;59.63
55517;BME280;41724;51.176;-0.708;2022-12-26T07:49:59;101000.44;;;7.89;60.37
55517;BME280;41724;51.176;-0.708;2022-12-26T07:52:26;101007.34;;;8.67;59.70
55517;BME280;41724;51.176;-0.708;2022-12-26T07:54:53;101009.49;;;8.13;59.57
55517;BME280;41724;51.176;-0.708;2022-12-26T07:57:20;101013.04;;;8.11;60.65
55517;BME280;41724;51.176;-0.708;2022-12-26T07:59:47;101021.35;;;8.12;60.69
55517;BME280;41724;51.176;-0.708;2022-12-26T08:02:15;101023.76;;;7.74;60.35
55517;BME280;41724;51.176;-0.708;2022-12-26T08:04:42;101029.72;;;8.30;60.51
55517;BME280;41724;51.176;-0.708;2022-12-26T08:07:09;101033.73;;;8.36;60.47
55517;BME280;41724;51.176;-0.708;2022-12-26T08:09:36;101038.00;;;8.13;59.74
55517;BME280;41724;51.176;-0.708;2022-12-26T08:12:04;101044.91;;;8.13;59.86
55517;BME280;41724;51.176;-0.708;2022-12-26T08:14:32;101057.75;;;8.52;58.75
55517;BME280;41724;51.176;-0.708;2022-12-26T08:16:59;101061.08;;;8.27;59.31
55517;BME280;41724;51.176;-0.708;2022-12-26T08:19:27;101067.67;;;8.36;59.27
55517;BME280;41724;51.176;-0.708;2022-12-26T08:21:54;101074.14;;;8.00;59.56
55517;BME280;41724;51.176;-0.708;2022-12-26T08:24:22;101082.45;;;8.06;59.56
55517;BME280;41724;51.176;-0.708;2022-12-26T08:26:50;101084.69;;;8.28;59.06
55517;BME280;41724;51.176;-0.708;2022-12-26T08:29:17;101087.61;;;8.23;58.84
55517;BME280;41724;51.176;-0.708;2022-12-26T08:31:44;101094.18;;;8.09;59.12
55517;BME280;41724;51.176;-0.708;2022-12-26T08:34:13;101102.43;;;8.02;58.60
55517;BME280;41724;51.176;-0.708;2022-12-26T08:36:40;101113.30;;;7.71;58.92
55517;BME280;41724;51.176;-0.708;2022-12-26T08:39:07;101119.73;;;7.89;58.66
55517;BME280;41724;51.176;-0.708;2022-12-26T08:41:34;101122.57;;;7.75;59.23
55517;BME280;41724;51.176;-0.708;2022-12-26T08:44:02;101125.47;;;7.74;59.91
55517;BME280;41724;51.176;-0.708;2022-12-26T08:46:29;101136.59;;;7.28;59.50
55517;BME280;41724;51.176;-0.708;2022-12-26T08:48:56;101144.78;;;6.88;61.13
55517;BME280;41724;51.176;-0.708;2022-12-26T08:51:24;101144.55;;;6.84;61.67
55517;BME280;41724;51.176;-0.708;2022-12-26T08:53:53;101145.78;;;7.13;61.73
55517;BME280;41724;51.176;-0.708;2022-12-26T08:56:24;101155.36;;;7.28;61.84
55517;BME280;41724;51.176;-0.708;2022-12-26T08:58:52;101158.31;;;7.47;61.15
55517;BME280;41724;51.176;-0.708;2022-12-26T09:01:21;101158.11;;;7.28;60.73
55517;BME280;41724;51.176;-0.708;2022-12-26T09:03:52;101159.65;;;7.26;60.10
55517;BME280;41724;51.176;-0.708;2022-12-26T09:06:20;101168.75;;;7.46;61.41
55517;BME280;41724;51.176;-0.708;2022-12-26T09:08:48;101170.45;;;6.70;61.52
55517;BME280;41724;51.176;-0.708;2022-12-26T09:11:18;101171.01;;;7.27;61.73
55517;BME280;41724;51.176;-0.708;2022-12-26T09:13:46;101178.85;;;7.45;61.63
55517;BME280;41724;51.176;-0.708;2022-12-26T09:16:16;101189.67;;;7.06;60.87
55517;BME280;41724;51.176;-0.708;2022-12-26T09:18:45;101194.42;;;7.19;61.43
55517;BME280;41724;51.176;-0.708;2022-12-26T09:21:13;101202.74;;;7.16;61.17
55517;BME280;41724;51.176;-0.708;2022-12-26T09:23:41;101211.61;;;7.04;62.04
55517;BME280;41724;51.176;-0.708;2022-12-26T09:26:11;101216.45;;;7.12;62.29
55517;BME280;41724;51.176;-0.708;2022-12-26T09:28:39;101214.56;;;7.08;61.39
55517;BME280;41724;51.176;-0.708;2022-12-26T09:31:10;101212.34;;;7.48;62.31
55517;BME280;41724;51.176;-0.708;2022-12-26T09:33:45;101221.98;;;7.34;60.91
55517;BME280;41724;51.176;-0.708;2022-12-26T09:36:14;101220.96;;;7.15;62.16
55517;BME280;41724;51.176;-0.708;2022-12-26T09:38:41;101224.56;;;7.14;63.26
55517;BME280;41724;51.176;-0.708;2022-12-26T09:41:26;101224.04;;;7.23;63.03
55517;BME280;41724;51.176;-0.708;2022-12-26T09:44:06;101230.45;;;7.00;63.32
55517;BME280;41724;51.176;-0.708;2022-12-26T09:46:41;101234.35;;;7.20;62.67
55517;BME280;41724;51.176;-0.708;2022-12-26T09:49:12;101240.40;;;7.37;62.90
55517;BME280;41724;51.176;-0.708;2022-12-26T09:51:45;101247.86;;;6.62;63.71
55517;BME280;41724;51.176;-0.708;2022-12-26T09:54:23;101253.56;;;6.61;64.41
55517;BME280;41724;51.176;-0.708;2022-12-26T09:56:52;101266.33;;;6.90;63.95
55517;BME280;41724;51.176;-0.708;2022-12-26T09:59:20;101268.88;;;6.51;63.52
55517;BME280;41724;51.176;-0.708;2022-12-26T10:01:49;101273.56;;;7.41;63.14
55517;BME280;41724;51.176;-0.708;2022-12-26T10:04:22;101280.09;;;7.16;63.60
55517;BME280;41724;51.176;-0.708;2022-12-26T10:06:57;101283.96;;;6.75;63.44
55517;BME280;41724;51.176;-0.708;2022-12-26T10:09:41;101289.49;;;7.01;63.66
55517;BME280;41724;51.176;-0.708;2022-12-26T10:12:23;101295.11;;;7.53;63.69
55517;BME280;41724;51.176;-0.708;2022-12-26T10:15:05;101297.77;;;7.06;62.71
55517;BME280;41724;51.176;-0.708;2022-12-26T10:17:43;101310.34;;;6.58;63.77
55517;BME280;41724;51.176;-0.708;2022-12-26T10:20:23;101313.34;;;6.73;63.75
55517;BME280;41724;51.176;-0.708;2022-12-26T10:23:09;101317.41;;;6.45;64.98
55517;BME280;41724;51.176;-0.708;2022-12-26T10:25:47;101323.94;;;6.54;64.46
55517;BME280;41724;51.176;-0.708;2022-12-26T10:28:18;101331.92;;;5.84;67.09
55517;BME280;41724;51.176;-0.708;2022-12-26T10:30:51;101340.29;;;6.11;67.29
55517;BME280;41724;51.176;-0.708;2022-12-26T10:33:32;101343.89;;;5.92;68.71
55517;BME280;41724;51.176;-0.708;2022-12-26T10:36:01;101339.72;;;6.50;67.24
55517;BME280;41724;51.176;-0.708;2022-12-26T10:38:33;101341.17;;;6.29;66.57
55517;BME280;41724;51.176;-0.708;2022-12-26T10:41:05;101341.18;;;6.18;66.00
55517;BME280;41724;51.176;-0.708;2022-12-26T10:43:38;101337.23;;;7.15;64.50
55517;BME280;41724;51.176;-0.708;2022-12-26T10:46:21;101339.87;;;6.29;64.28
55517;BME280;41724;51.176;-0.708;2022-12-26T10:48:55;101339.63;;;6.40;66.58
55517;BME280;41724;51.176;-0.708;2022-12-26T10:51:24;101335.87;;;6.45;65.39
55517;BME280;41724;51.176;-0.708;2022-12-26T10:53:53;101342.85;;;6.02;65.59
55517;BME280;41724;51.176;-0.708;2022-12-26T10:56:21;101346.01;;;6.33;65.64
55517;BME280;41724;51.176;-0.708;2022-12-26T10:58:59;101344.35;;;5.58;67.09
55517;BME280;41724;51.176;-0.708;2022-12-26T11:01:36;101339.06;;;6.23;66.42
55517;BME280;41724;51.176;-0.708;2022-12-26T11:04:07;101334.45;;;6.77;65.85
55517;BME280;41724;51.176;-0.708;2022-12-26T11:06:41;101336.50;;;6.85;64.77
55517;BME280;41724;51.176;-0.708;2022-12-26T11:09:29;101342.18;;;6.97;63.07
55517;BME280;41724;51.176;-0.708;2022-12-26T11:12:01;101352.41;;;5.93;64.63
55517;BME280;41724;51.176;-0.708;2022-12-26T11:14:33;101347.49;;;6.54;65.39
55517;BME280;41724;51.176;-0.708;2022-12-26T11:17:05;101348.94;;;6.81;64.29
55517;BME280;41724;51.176;-0.708;2022-12-26T11:19:35;101346.76;;;7.06;62.72
55517;BME280;41724;51.176;-0.708;2022-12-26T11:22:23;101352.87;;;6.44;63.55
55517;BME280;41724;51.176;-0.708;2022-12-26T11:25:11;101348.66;;;5.95;66.68
55517;BME280;41724;51.176;-0.708;2022-12-26T11:27:40;101345.68;;;6.25;65.49
55517;BME280;41724;51.176;-0.708;2022-12-26T11:30:17;101346.62;;;6.45;63.84
55517;BME280;41724;51.176;-0.708;2022-12-26T11:32:47;101347.40;;;6.15;65.23
55517;BME280;41724;51.176;-0.708;2022-12-26T11:35:17;101351.38;;;6.59;64.16
55517;BME280;41724;51.176;-0.708;2022-12-26T11:37:49;101353.48;;;7.20;61.89
55517;BME280;41724;51.176;-0.708;2022-12-26T11:40:20;101362.21;;;7.25;59.83
55517;BME280;41724;51.176;-0.708;2022-12-26T11:42:53;101360.74;;;7.32;59.27
55517;BME280;41724;51.176;-0.708;2022-12-26T11:45:24;101367.19;;;7.61;58.10
55517;BME280;41724;51.176;-0.708;2022-12-26T11:47:53;101364.94;;;7.54;58.79
55517;BME280;41724;51.176;-0.708;2022-12-26T11:50:27;101361.53;;;7.53;59.16
55517;BME280;41724;51.176;-0.708;2022-12-26T11:53:05;101360.96;;;6.84;60.45
55517;BME280;41724;51.176;-0.708;2022-12-26T11:55:39;101364.89;;;6.72;58.72
55517;BME280;41724;51.176;-0.708;2022-12-26T11:58:16;101364.53;;;7.31;58.72
55517;BME280;41724;51.176;-0.708;2022-12-26T12:01:06;101367.42;;;7.39;59.28
55517;BME280;41724;51.176;-0.708;2022-12-26T12:03:36;101360.41;;;7.73;58.66
55517;BME280;41724;51.176;-0.708;2022-12-26T12:06:51;101361.28;;;7.83;58.21
55517;BME280;41724;51.176;-0.708;2022-12-26T12:09:28;101372.63;;;8.31;56.70
55517;BME280;41724;51.176;-0.708;2022-12-26T12:12:04;101370.87;;;7.82;57.95
55517;BME280;41724;51.176;-0.708;2022-12-26T12:14:45;101370.42;;;7.79;55.52
55517;BME280;41724;51.176;-0.708;2022-12-26T12:17:21;101374.07;;;7.83;55.83
55517;BME280;41724;51.176;-0.708;2022-12-26T12:20:04;101379.01;;;8.25;56.95
55517;BME280;41724;51.176;-0.708;2022-12-26T12:22:59;101371.80;;;8.43;52.40
55517;BME280;41724;51.176;-0.708;2022-12-26T12:25:45;101374.25;;;7.86;53.47
55517;BME280;41724;51.176;-0.708;2022-12-26T12:28:36;101377.14;;;6.40;54.05
55517;BME280;41724;51.176;-0.708;2022-12-26T12:31:12;101371.49;;;7.13;54.78
55517;BME280;41724;51.176;-0.708;2022-12-26T12:33:51;101362.29;;;7.71;54.06
55517;BME280;41724;51.176;-0.708;2022-12-26T12:36:28;101360.23;;;8.06;53.00
55517;BME280;41724;51.176;-0.708;2022-12-26T12:39:03;101360.38;;;7.37;54.12
55517;BME280;41724;51.176;-0.708;2022-12-26T12:41:57;101365.41;;;7.71;53.67
55517;BME280;41724;51.176;-0.708;2022-12-26T12:44:50;101367.19;;;9.09;51.39
55517;BME280;41724;51.176;-0.708;2022-12-26T12:47:28;101378.78;;;7.49;53.76
55517;BME280;41724;51.176;-0.708;2022-12-26T12:50:05;101389.25;;;8.95;53.66
55517;BME280;41724;51.176;-0.708;2022-12-26T12:52:43;101390.03;;;8.39;52.62
55517;BME280;41724;51.176;-0.708;2022-12-26T12:55:27;101386.05;;;8.86;51.21
55517;BME280;41724;51.176;-0.708;2022-12-26T12:58:05;101388.55;;;8.37;51.74
55517;BME280;41724;51.176;-0.708;2022-12-26T13:00:43;101386.33;;;8.30;53.52
55517;BME280;41724;51.176;-0.708;2022-12-26T13:03:23;101387.03;;;7.89;55.06
55517;BME280;41724;51.176;-0.708;2022-12-26T13:05:58;101379.80;;;7.41;56.51
55517;BME280;41724;51.176;-0.708;2022-12-26T13:08:34;101391.29;;;6.66;58.72
55517;BME280;41724;51.176;-0.708;2022-12-26T13:11:08;101382.40;;;6.97;58.09
55517;BME280;41724;51.176;-0.708;2022-12-26T13:13:45;101383.54;;;8.39;55.48
55517;BME280;41724;51.176;-0.708;2022-12-26T13:16:21;101376.90;;;6.93;56.49